Bristow, KY

1:30 AM CST op 21 februari 2017 (GMT -0600)
Clearing in wooded area | | Change Station

Hoogte 614 ft 37.05 °N, 86.38 °W | Updated 31 seconds ago

Gedeeltelijk bewolkt
Gedeeltelijk bewolkt
57.2 °F
Voelt als 57.2 °F
N
1.0
Wind Variabel Wind van zuid
Gusts 0.0 mijl/u

Vandaag
Hoog -- | Laag -- °F
--% Kans op neerslag
Gisteren
Hoog -- | Laag -- °F
Precip. -- inches
Druk 30.00 inches
Zicht 10.0 mijlen
Wolken Helder
Dauwpunt 42 °F
Vochtigheid 57%
Neerslag 0.00 inches
Dikte sneeuw Niet beschikbaar.
6:26 AM 5:32 PM
Afnemende halvemaan, 27% visible
METAR KBWG 210653Z AUTO 16006KT 10SM CLR 17/07 A3001 RMK AO2 SLP158 T01670067
Druk 30.00 inches
Zicht 10.0 mijlen
Wolken Helder
Dauwpunt 42 °F
Vochtigheid 57%
Neerslag 0.00 inches
Dikte sneeuw Niet beschikbaar.
6:26 AM 5:32 PM
Afnemende halvemaan, 27% visible
METAR KBWG 210653Z AUTO 16006KT 10SM CLR 17/07 A3001 RMK AO2 SLP158 T01670067

Get Your Daily Forecast Email!

Thanks for signing up!

Be on the lookout for a verification email in your inbox.

You'll start receiving the daily forecast at 8 AM.

×

10-Day Weather Forecast

Almanac

Astronomie

Feb. 21, 2017 Opkomst Ondergang
Werkelijke tijd
Burgerlijke schemering
Nautische schemering
Astronomische schemering
Maan
Golflengte van het zichtbare licht
Daglengte
Tomorrow will be .
, % of the Moon is Illuminated

Extremen vandaag

State Highs State Lows

Community

WunderPhotos

Upload Photos

1,962,540 foto’s ge-upload!

WunderBlog® & News

Nearby

Luchtkwaliteit

  Luchtkwaliteit LK-index Verontreinigende stof
Not available.

Dikte sneeuw

Station Depth Geometrische hoogte

Aardbevingen

Stad Distance Mag. Time & Date
Minimum magnitude displayed is 2.5.

Watertemperatuur langs de kust

Plaats Temperatuur

Stations

Nabije weerstations

Locatie station Temp. Gevoelstemperatuur Dauwpunt Vochtigheid Wind Precip. Hoogte Geactualiseerd Type
                   

Watches & Warnings

There are currently no watches in effect.